Shabla, Bulgaria
Current Conditions -  °F | °C
As of 10:00 AM on Sunday 23 Nov 2014 (Local Time) from LRTZ Reporting Station
Haze Haze  
Wind Chill: 28°   Ceiling: 1000
Heat Index: 36°   Visibility: 3mi
Dew Point: 34°   Wind: 12mph
Humidity: 93%   Direction: 320°NW
Pressure: 30.39"   Gusts: NA
Location:  43.54°N, 28.54°E
Report Text: LRTZ 230700Z 32010KT 5000 BR FEW005 BKN010 OVC020 02/01 Q1029 GRN GRN
Loading
Personal Weather Stations






























Interactive Weather Map New forecast layout! Learn more

10-Day Weather Forecast

Advertisements
Track Severe Weather on mobile